createdAt,value
2018-03-27T00:00:18.747Z,3.74
2018-03-27T00:01:18.675Z,3.66
2018-03-27T00:02:18.583Z,3.72
2018-03-27T00:03:18.512Z,3.75
2018-03-27T00:04:18.425Z,3.69
2018-03-27T00:05:18.405Z,3.69
2018-03-27T00:06:18.263Z,3.75
2018-03-27T00:07:18.193Z,3.75
2018-03-27T00:08:18.103Z,3.80
2018-03-27T00:09:18.031Z,3.65
2018-03-27T00:10:17.940Z,3.68
2018-03-27T00:11:17.869Z,3.71
2018-03-27T00:12:17.781Z,3.68
2018-03-27T00:13:17.713Z,3.75
2018-03-27T00:14:17.622Z,3.79
2018-03-27T00:15:17.548Z,3.69
2018-03-27T00:16:17.462Z,3.74
2018-03-27T00:17:17.389Z,3.75
2018-03-27T00:18:17.300Z,3.72
2018-03-27T00:19:17.227Z,3.74
2018-03-27T00:20:17.145Z,3.79
2018-03-27T00:21:17.071Z,3.80
2018-03-27T00:22:16.985Z,3.77
2018-03-27T00:23:16.908Z,3.86
2018-03-27T00:24:16.822Z,3.86
2018-03-27T00:25:16.751Z,3.83
2018-03-27T00:26:16.659Z,3.84
2018-03-27T00:27:16.588Z,3.84
2018-03-27T00:28:16.501Z,3.87
2018-03-27T00:29:16.428Z,3.93
2018-03-27T00:30:16.341Z,3.90
2018-03-27T00:31:16.269Z,3.92
2018-03-27T00:32:16.182Z,3.87
2018-03-27T00:33:16.113Z,3.84
2018-03-27T00:34:16.026Z,3.87
2018-03-27T00:35:15.946Z,3.86
2018-03-27T00:36:15.860Z,3.89
2018-03-27T00:37:15.788Z,3.90
2018-03-27T00:38:15.703Z,3.86
2018-03-27T00:39:15.625Z,3.84
2018-03-27T00:40:15.541Z,3.87
2018-03-27T00:41:15.468Z,3.87
2018-03-27T00:42:15.381Z,3.93
2018-03-27T00:43:15.310Z,3.90
2018-03-27T00:44:15.221Z,3.94
2018-03-27T00:45:15.150Z,3.90
2018-03-27T00:46:15.066Z,3.93
2018-03-27T00:47:14.985Z,3.90
2018-03-27T00:48:14.903Z,3.89
2018-03-27T00:49:14.829Z,3.87
2018-03-27T00:50:14.740Z,3.84
2018-03-27T00:51:14.677Z,3.86
2018-03-27T00:52:14.578Z,3.90
2018-03-27T00:53:14.512Z,3.93
2018-03-27T00:54:14.420Z,3.82
2018-03-27T00:55:14.346Z,3.89
2018-03-27T00:56:14.261Z,3.90
2018-03-27T00:57:14.190Z,3.92
2018-03-27T00:58:14.099Z,3.93
2018-03-27T00:59:14.025Z,3.89
2018-03-27T01:00:13.938Z,3.90
2018-03-27T01:01:13.868Z,3.86
2018-03-27T01:02:13.780Z,3.97
2018-03-27T01:03:13.702Z,3.83
2018-03-27T01:04:13.621Z,3.84
2018-03-27T01:05:13.548Z,3.93
2018-03-27T01:06:13.466Z,3.84
2018-03-27T01:07:13.386Z,3.93
2018-03-27T01:08:13.301Z,3.98
2018-03-27T01:09:13.227Z,3.97
2018-03-27T01:10:13.140Z,4.02
2018-03-27T01:11:13.066Z,3.93
2018-03-27T01:12:12.980Z,3.90
2018-03-27T01:13:12.907Z,3.90
2018-03-27T01:14:12.821Z,3.87
2018-03-27T01:15:12.747Z,4.00
2018-03-27T01:16:12.659Z,3.84
2018-03-27T01:17:12.588Z,3.87
2018-03-27T01:18:12.502Z,3.98
2018-03-27T01:19:12.430Z,3.92
2018-03-27T01:20:12.339Z,3.97
2018-03-27T01:21:12.269Z,4.00
2018-03-27T01:22:12.184Z,3.92
2018-03-27T01:23:12.106Z,4.04
2018-03-27T01:24:12.018Z,4.00
2018-03-27T01:25:11.947Z,4.02
2018-03-27T01:26:11.861Z,3.98
2018-03-27T01:27:11.787Z,4.01
2018-03-27T01:28:11.696Z,3.97
2018-03-27T01:29:11.631Z,3.97
2018-03-27T01:30:11.540Z,3.94
2018-03-27T01:31:11.469Z,3.98
2018-03-27T01:32:11.379Z,4.00
2018-03-27T01:33:11.312Z,4.02
2018-03-27T01:34:11.221Z,4.00
2018-03-27T01:35:11.147Z,4.02
2018-03-27T01:36:11.071Z,3.93
2018-03-27T01:37:10.989Z,3.98
2018-03-27T01:38:10.899Z,3.86
2018-03-27T01:39:10.834Z,3.97
2018-03-27T01:40:10.742Z,3.89
2018-03-27T01:41:10.669Z,4.00
2018-03-27T01:42:10.581Z,3.97
2018-03-27T01:43:10.508Z,3.87
2018-03-27T01:44:10.419Z,3.89
2018-03-27T01:45:10.349Z,3.93
2018-03-27T01:46:10.264Z,3.98
2018-03-27T01:47:10.186Z,3.98
2018-03-27T01:48:10.098Z,3.94
2018-03-27T01:49:10.025Z,3.98
2018-03-27T01:50:09.941Z,4.04
2018-03-27T01:51:09.871Z,3.98
2018-03-27T01:52:09.783Z,4.00
2018-03-27T01:53:09.709Z,4.12
2018-03-27T01:54:09.621Z,3.97
2018-03-27T01:55:09.552Z,4.01
2018-03-27T01:56:09.463Z,4.01
2018-03-27T01:57:09.390Z,4.01
2018-03-27T01:58:09.301Z,4.01
2018-03-27T01:59:09.261Z,4.01
2018-03-27T02:00:09.165Z,4.01
2018-03-27T02:01:09.076Z,4.02
2018-03-27T02:02:08.982Z,4.04
2018-03-27T02:03:08.908Z,4.00
2018-03-27T02:04:08.822Z,3.84
2018-03-27T02:05:08.751Z,3.97
2018-03-27T02:06:08.662Z,3.84
2018-03-27T02:07:08.593Z,3.87
2018-03-27T02:08:08.504Z,3.87
2018-03-27T02:09:08.427Z,3.94
2018-03-27T02:10:08.345Z,3.82
2018-03-27T02:11:08.269Z,3.87
2018-03-27T02:12:08.182Z,3.90
2018-03-27T02:13:08.110Z,3.89
2018-03-27T02:14:08.024Z,3.90
2018-03-27T02:15:07.952Z,3.87
2018-03-27T02:16:07.860Z,4.01
2018-03-27T02:17:07.798Z,3.89
2018-03-27T02:18:07.706Z,3.89
2018-03-27T02:19:07.633Z,3.83
2018-03-27T02:20:07.546Z,3.98
2018-03-27T02:21:07.475Z,3.98
2018-03-27T02:22:07.384Z,3.98
2018-03-27T02:23:07.321Z,4.05
2018-03-27T02:24:07.225Z,3.94
2018-03-27T02:25:07.151Z,3.92
2018-03-27T02:26:07.064Z,4.00
2018-03-27T02:27:06.992Z,4.01
2018-03-27T02:28:06.914Z,4.00
2018-03-27T02:29:06.828Z,4.01
2018-03-27T02:30:06.747Z,3.98
2018-03-27T02:31:06.673Z,4.05
2018-03-27T02:32:06.586Z,4.10
2018-03-27T02:33:06.517Z,4.05
2018-03-27T02:34:06.428Z,4.01
2018-03-27T02:35:06.355Z,4.11
2018-03-27T02:36:06.261Z,4.07
2018-03-27T02:37:06.192Z,4.12
2018-03-27T02:38:06.108Z,4.07
2018-03-27T02:39:06.032Z,4.00
2018-03-27T02:40:05.946Z,3.94
2018-03-27T02:41:05.873Z,4.01
2018-03-27T02:42:05.781Z,4.05
2018-03-27T02:43:05.718Z,4.04
2018-03-27T02:44:05.627Z,4.00
2018-03-27T02:45:05.553Z,4.00
2018-03-27T02:46:05.469Z,3.86
2018-03-27T02:47:05.394Z,3.87
2018-03-27T02:48:05.305Z,3.86
2018-03-27T02:49:05.240Z,3.79
2018-03-27T02:50:05.159Z,3.79
2018-03-27T02:51:05.074Z,3.71
2018-03-27T02:52:04.984Z,3.62
2018-03-27T02:53:04.913Z,3.71
2018-03-27T02:54:04.827Z,3.66
2018-03-27T02:55:04.762Z,3.66
2018-03-27T02:56:04.668Z,3.77
2018-03-27T02:57:04.593Z,3.74
2018-03-27T02:58:04.505Z,3.79
2018-03-27T02:59:04.433Z,3.77
2018-03-27T03:00:04.350Z,3.86
2018-03-27T03:01:04.278Z,3.84
2018-03-27T03:02:04.185Z,3.84
2018-03-27T03:03:04.113Z,3.86
2018-03-27T03:04:04.024Z,3.84
2018-03-27T03:05:03.955Z,3.82
2018-03-27T03:06:03.870Z,3.74
2018-03-27T03:07:03.794Z,3.84
2018-03-27T03:08:03.710Z,3.77
2018-03-27T03:09:03.634Z,3.71
2018-03-27T03:10:03.553Z,3.80
2018-03-27T03:11:03.479Z,3.66
2018-03-27T03:12:03.386Z,3.69
2018-03-27T03:13:03.313Z,3.79
2018-03-27T03:14:03.227Z,3.79
2018-03-27T03:15:03.156Z,3.79
2018-03-27T03:16:03.065Z,3.77
2018-03-27T03:17:02.994Z,3.79
2018-03-27T03:18:02.906Z,3.84
2018-03-27T03:19:02.891Z,3.84
2018-03-27T03:20:02.747Z,3.89
2018-03-27T03:21:02.667Z,3.87
2018-03-27T03:22:02.585Z,3.86
2018-03-27T03:23:02.514Z,3.90
2018-03-27T03:24:02.425Z,3.83
2018-03-27T03:25:02.369Z,3.90
2018-03-27T03:26:02.267Z,3.87
2018-03-27T03:27:02.191Z,3.97
2018-03-27T03:28:02.106Z,3.86
2018-03-27T03:29:02.035Z,3.90
2018-03-27T03:30:01.946Z,3.93
2018-03-27T03:31:01.877Z,3.87
2018-03-27T03:32:01.784Z,3.87
2018-03-27T03:33:01.710Z,4.01
2018-03-27T03:34:01.625Z,4.01
2018-03-27T03:35:01.559Z,3.84
2018-03-27T03:36:01.471Z,3.98
2018-03-27T03:37:01.392Z,3.97
2018-03-27T03:38:01.306Z,3.90
2018-03-27T03:39:01.232Z,4.02
2018-03-27T03:40:01.155Z,4.02
2018-03-27T03:41:01.075Z,4.00
2018-03-27T03:42:00.986Z,4.07
2018-03-27T03:43:00.914Z,4.01
2018-03-27T03:44:00.828Z,4.02
2018-03-27T03:45:00.756Z,3.97
2018-03-27T03:46:00.670Z,4.00
2018-03-27T03:47:00.596Z,4.04
2018-03-27T03:48:00.512Z,4.00
2018-03-27T03:49:00.434Z,4.11
2018-03-27T03:50:00.350Z,4.15
2018-03-27T03:51:00.280Z,4.11
2018-03-27T03:52:00.186Z,4.12
2018-03-27T03:53:00.115Z,4.07
2018-03-27T03:54:00.031Z,4.10
2018-03-27T03:54:59.954Z,4.08
2018-03-27T03:55:59.877Z,4.10
2018-03-27T03:56:59.795Z,4.18
2018-03-27T03:57:59.709Z,4.16
2018-03-27T03:58:59.633Z,4.19
2018-03-27T03:59:59.558Z,4.20
2018-03-27T04:00:59.474Z,4.12
2018-03-27T04:01:59.388Z,4.22
2018-03-27T04:02:59.314Z,4.22
2018-03-27T04:03:59.231Z,4.19
2018-03-27T04:04:59.160Z,4.20
2018-03-27T04:05:59.069Z,4.30
2018-03-27T04:06:59.006Z,4.30
2018-03-27T04:07:58.916Z,4.29
2018-03-27T04:08:58.836Z,4.30
2018-03-27T04:09:58.751Z,4.34
2018-03-27T04:10:58.674Z,4.37
2018-03-27T04:11:58.586Z,4.30
2018-03-27T04:12:58.523Z,4.30
2018-03-27T04:13:58.429Z,4.46
2018-03-27T04:14:58.354Z,4.32
2018-03-27T04:15:58.269Z,4.36
2018-03-27T04:16:58.198Z,4.36
2018-03-27T04:17:58.109Z,4.37
2018-03-27T04:18:58.037Z,4.32
2018-03-27T04:19:57.952Z,4.36
2018-03-27T04:20:57.878Z,4.41
2018-03-27T04:21:57.789Z,4.44
2018-03-27T04:22:57.715Z,4.37
2018-03-27T04:23:57.628Z,4.38
2018-03-27T04:24:57.558Z,4.37
2018-03-27T04:25:57.470Z,4.41
2018-03-27T04:26:57.396Z,4.36
2018-03-27T04:27:57.312Z,4.30
2018-03-27T04:28:57.242Z,4.25
2018-03-27T04:29:57.148Z,4.20
2018-03-27T04:30:57.075Z,4.08
2018-03-27T04:31:56.992Z,4.07
2018-03-27T04:32:56.921Z,4.04
2018-03-27T04:33:56.829Z,4.01
2018-03-27T04:34:56.756Z,4.02
2018-03-27T04:35:56.672Z,4.04
2018-03-27T04:36:56.602Z,4.05
2018-03-27T04:37:56.509Z,4.05
2018-03-27T04:38:56.437Z,3.87
2018-03-27T04:39:56.352Z,3.93
2018-03-27T04:40:56.280Z,4.07
2018-03-27T04:41:56.191Z,4.04
2018-03-27T04:42:56.124Z,4.07
2018-03-27T04:43:56.031Z,4.00
2018-03-27T04:44:55.961Z,3.97
2018-03-27T04:45:55.874Z,3.89
2018-03-27T04:46:56.803Z,3.84
2018-03-27T04:47:55.712Z,4.01
2018-03-27T04:48:55.640Z,3.98
2018-03-27T04:49:55.553Z,4.00
2018-03-27T04:50:55.479Z,3.84
2018-03-27T04:51:55.392Z,3.98
2018-03-27T04:52:55.321Z,3.87
2018-03-27T04:53:55.234Z,3.83
2018-03-27T04:54:55.157Z,3.89
2018-03-27T04:55:55.075Z,3.90
2018-03-27T04:56:54.999Z,3.92
2018-03-27T04:57:54.913Z,3.89
2018-03-27T04:58:54.840Z,3.86
2018-03-27T04:59:54.752Z,3.83
2018-03-27T05:00:54.682Z,3.83
2018-03-27T05:01:54.592Z,3.82
2018-03-27T05:02:54.520Z,3.79
2018-03-27T05:03:54.433Z,3.80
2018-03-27T05:04:54.362Z,3.83
2018-03-27T05:05:54.296Z,3.89
2018-03-27T05:06:54.200Z,3.89
2018-03-27T05:07:54.112Z,3.87
2018-03-27T05:08:54.040Z,3.87
2018-03-27T05:09:53.952Z,3.87
2018-03-27T05:10:53.883Z,3.87
2018-03-27T05:11:53.790Z,3.77
2018-03-27T05:12:53.727Z,3.77
2018-03-27T05:13:53.635Z,3.74
2018-03-27T05:14:53.574Z,3.75
2018-03-27T05:15:53.473Z,3.74
2018-03-27T05:16:53.401Z,3.69
2018-03-27T05:17:53.314Z,3.71
2018-03-27T05:18:53.239Z,3.71
2018-03-27T05:19:53.154Z,3.71
2018-03-27T05:20:53.081Z,3.80
2018-03-27T05:21:52.994Z,3.75
2018-03-27T05:22:52.921Z,3.69
2018-03-27T05:23:52.832Z,3.66
2018-03-27T05:24:52.763Z,3.75
2018-03-27T05:25:52.673Z,3.68
2018-03-27T05:26:52.599Z,3.80
2018-03-27T05:27:52.513Z,3.80
2018-03-27T05:28:52.444Z,3.68
2018-03-27T05:29:52.354Z,3.69
2018-03-27T05:30:52.280Z,3.74
2018-03-27T05:31:52.192Z,3.82
2018-03-27T05:32:52.173Z,3.86
2018-03-27T05:33:52.033Z,3.82
2018-03-27T05:34:51.960Z,3.80
2018-03-27T05:35:51.872Z,3.80
2018-03-27T05:36:51.806Z,3.83
2018-03-27T05:37:51.715Z,3.87
2018-03-27T05:38:51.639Z,3.86
2018-03-27T05:39:51.552Z,3.89
2018-03-27T05:40:51.484Z,3.93
2018-03-27T05:41:51.394Z,3.92
2018-03-27T05:42:51.320Z,3.86
2018-03-27T05:43:51.233Z,3.98
2018-03-27T05:44:51.161Z,4.02
2018-03-27T05:45:51.072Z,3.94
2018-03-27T05:46:51.007Z,4.00
2018-03-27T05:47:50.913Z,4.01
2018-03-27T05:48:50.841Z,4.04
2018-03-27T05:49:50.759Z,3.94
2018-03-27T05:50:50.768Z,4.04
2018-03-27T05:51:50.644Z,4.01
2018-03-27T05:52:50.579Z,3.87
2018-03-27T05:53:50.438Z,4.08
2018-03-27T05:54:50.389Z,4.04
2018-03-27T05:55:50.343Z,4.00
2018-03-27T05:56:50.302Z,3.94
2018-03-27T05:57:50.121Z,3.89
2018-03-27T05:58:50.111Z,3.86
2018-03-27T05:59:49.954Z,3.92
2018-03-27T06:00:49.916Z,3.97
2018-03-27T06:01:49.800Z,4.01
2018-03-27T06:02:49.822Z,3.86
2018-03-27T06:03:49.638Z,3.90
2018-03-27T06:04:49.638Z,3.90
2018-03-27T06:05:49.472Z,3.97
2018-03-27T06:06:49.445Z,4.02
2018-03-27T06:07:49.326Z,4.01
2018-03-27T06:08:49.362Z,4.07
2018-03-27T06:09:49.155Z,4.04
2018-03-27T06:10:49.160Z,4.01
2018-03-27T06:11:48.997Z,4.04
2018-03-27T06:12:48.971Z,4.07
2018-03-27T06:13:48.837Z,4.16
2018-03-27T06:14:48.777Z,4.19
2018-03-27T06:15:48.677Z,4.08
2018-03-27T06:16:48.688Z,4.10
2018-03-27T06:17:48.516Z,4.12
2018-03-27T06:18:48.500Z,4.16
2018-03-27T06:19:48.356Z,4.12
2018-03-27T06:20:48.305Z,4.02
2018-03-27T06:21:48.198Z,4.10
2018-03-27T06:22:48.217Z,4.05
2018-03-27T06:23:48.035Z,4.10
2018-03-27T06:24:48.027Z,4.11
2018-03-27T06:25:47.889Z,4.11
2018-03-27T06:26:48.896Z,4.18
2018-03-27T06:27:47.714Z,4.18
2018-03-27T06:28:47.743Z,4.12
2018-03-27T06:29:47.558Z,4.18
2018-03-27T06:30:47.555Z,4.23
2018-03-27T06:31:47.397Z,4.22
2018-03-27T06:32:47.366Z,4.20
2018-03-27T06:33:47.284Z,4.19
2018-03-27T06:34:47.273Z,4.25
2018-03-27T06:35:47.074Z,4.20
2018-03-27T06:36:47.083Z,4.25
2018-03-27T06:37:46.919Z,4.32
2018-03-27T06:38:46.897Z,4.38
2018-03-27T06:39:46.769Z,4.36
2018-03-27T06:40:46.697Z,4.37
2018-03-27T06:41:46.600Z,4.40
2018-03-27T06:42:46.607Z,4.52
2018-03-27T06:43:46.435Z,4.44
2018-03-27T06:44:46.420Z,4.44
2018-03-27T06:45:46.281Z,4.55
2018-03-27T06:46:46.228Z,4.54
2018-03-27T06:47:46.140Z,4.54
2018-03-27T06:48:46.139Z,4.58
2018-03-27T06:49:45.963Z,4.65
2018-03-27T06:50:45.947Z,4.55
2018-03-27T06:51:45.796Z,4.62
2018-03-27T06:52:45.755Z,4.64
2018-03-27T06:53:45.640Z,4.59
2018-03-27T06:54:45.660Z,4.62
2018-03-27T06:55:45.481Z,4.62
2018-03-27T06:56:45.472Z,4.66
2018-03-27T06:57:45.320Z,4.58
2018-03-27T06:58:45.274Z,4.69
2018-03-27T06:59:45.161Z,4.55
2018-03-27T07:00:45.188Z,4.58
2018-03-27T07:01:45.004Z,4.64
2018-03-27T07:02:45.010Z,4.69
2018-03-27T07:03:44.849Z,4.73
2018-03-27T07:04:44.806Z,4.65
2018-03-27T07:05:44.712Z,4.68
2018-03-27T07:06:44.722Z,4.68
2018-03-27T07:07:44.524Z,4.74
2018-03-27T07:08:44.528Z,4.73
2018-03-27T07:09:44.364Z,4.85
2018-03-27T07:10:44.382Z,4.95
2018-03-27T07:11:44.242Z,5.02
2018-03-27T07:12:44.138Z,5.08
2018-03-27T07:13:44.053Z,5.05
2018-03-27T07:14:44.055Z,5.11
2018-03-27T07:15:43.918Z,5.21
2018-03-27T07:16:43.887Z,5.29
2018-03-27T07:17:43.726Z,5.28
2018-03-27T07:18:43.673Z,5.38
2018-03-27T07:19:43.569Z,5.39
2018-03-27T07:20:43.584Z,5.42
2018-03-27T07:21:43.412Z,5.54
2018-03-27T07:22:43.391Z,5.62
2018-03-27T07:23:43.250Z,5.67
2018-03-27T07:24:43.204Z,5.68
2018-03-27T07:25:43.097Z,5.72
2018-03-27T07:26:43.110Z,5.74
2018-03-27T07:27:42.932Z,5.80
2018-03-27T07:28:42.917Z,5.95
2018-03-27T07:29:42.778Z,6.04
2018-03-27T07:30:42.728Z,6.13
2018-03-27T07:31:42.620Z,6.26
2018-03-27T07:32:42.639Z,6.33
2018-03-27T07:33:42.468Z,6.39
2018-03-27T07:34:43.473Z,6.45
2018-03-27T07:35:42.304Z,6.65
2018-03-27T07:36:43.283Z,6.73
2018-03-27T07:37:42.147Z,6.75
2018-03-27T07:38:42.165Z,6.93
2018-03-27T07:39:41.984Z,7.03
2018-03-27T07:40:46.903Z,6.98
2018-03-27T07:41:41.828Z,6.99
2018-03-27T07:42:41.783Z,6.96
2018-03-27T07:43:41.677Z,6.99
2018-03-27T07:44:41.694Z,7.01
2018-03-27T07:45:41.512Z,7.01
2018-03-27T07:46:41.502Z,6.98
2018-03-27T07:47:41.346Z,6.96
2018-03-27T07:48:41.311Z,7.02
2018-03-27T07:49:41.198Z,6.99
2018-03-27T07:50:41.221Z,7.16
2018-03-27T07:51:41.038Z,7.30
2018-03-27T07:52:41.028Z,7.38
2018-03-27T07:53:40.881Z,7.47
2018-03-27T07:54:40.836Z,7.56
2018-03-27T07:55:40.724Z,7.67
2018-03-27T07:56:40.752Z,7.73
2018-03-27T07:57:40.569Z,7.83
2018-03-27T07:58:40.557Z,7.94
2018-03-27T07:59:40.411Z,8.09
2018-03-27T08:00:40.364Z,8.21
2018-03-27T08:01:40.261Z,8.30
2018-03-27T08:02:40.274Z,8.37
2018-03-27T08:03:40.098Z,8.47
2018-03-27T08:04:40.087Z,8.61
2018-03-27T08:05:39.945Z,8.77
2018-03-27T08:06:39.891Z,8.80
2018-03-27T08:07:39.793Z,8.87
2018-03-27T08:08:39.801Z,8.91
2018-03-27T08:09:39.632Z,9.05
2018-03-27T08:10:39.610Z,9.25
2018-03-27T08:11:39.475Z,9.14
2018-03-27T08:12:39.412Z,9.34
2018-03-27T08:13:39.320Z,9.37
2018-03-27T08:14:39.329Z,9.58
2018-03-27T08:15:39.172Z,9.61
2018-03-27T08:16:39.134Z,9.55
2018-03-27T08:17:39.012Z,9.58
2018-03-27T08:18:39.048Z,9.67
2018-03-27T08:19:38.859Z,9.56
2018-03-27T08:20:38.858Z,9.61
2018-03-27T08:21:38.701Z,9.63
2018-03-27T08:22:38.637Z,9.61
2018-03-27T08:23:38.550Z,9.70
2018-03-27T08:24:38.478Z,9.82
2018-03-27T08:25:38.393Z,9.89
2018-03-27T08:26:38.328Z,10.01
2018-03-27T08:27:38.248Z,10.00
2018-03-27T08:28:38.169Z,10.00
2018-03-27T08:29:38.123Z,10.08
2018-03-27T08:30:38.013Z,10.13
2018-03-27T08:31:37.929Z,10.18
2018-03-27T08:32:37.865Z,10.19
2018-03-27T08:33:37.781Z,10.03
2018-03-27T08:34:37.709Z,10.15
2018-03-27T08:35:37.626Z,10.16
2018-03-27T08:36:37.560Z,10.11
2018-03-27T08:37:37.474Z,10.04
2018-03-27T08:38:37.403Z,9.83
2018-03-27T08:39:37.319Z,9.79
2018-03-27T08:40:37.253Z,9.83
2018-03-27T08:41:37.166Z,9.70
2018-03-27T08:42:37.096Z,9.56
2018-03-27T08:43:37.027Z,9.49
2018-03-27T08:44:36.946Z,9.56
2018-03-27T08:45:36.862Z,9.45
2018-03-27T08:46:36.792Z,9.37
2018-03-27T08:47:36.707Z,9.40
2018-03-27T08:48:36.658Z,9.35
2018-03-27T08:49:36.551Z,9.13
2018-03-27T08:50:36.482Z,9.28
2018-03-27T08:51:36.400Z,9.10
2018-03-27T08:52:36.333Z,9.14
2018-03-27T08:53:36.248Z,9.24
2018-03-27T08:54:36.182Z,9.32
2018-03-27T08:55:36.096Z,9.37
2018-03-27T08:56:36.026Z,9.37
2018-03-27T08:57:35.941Z,9.40
2018-03-27T08:58:35.871Z,9.37
2018-03-27T08:59:35.789Z,9.38
2018-03-27T09:00:35.715Z,9.32
2018-03-27T09:01:35.634Z,9.42
2018-03-27T09:02:35.567Z,9.27
2018-03-27T09:03:35.479Z,9.14
2018-03-27T09:04:35.409Z,9.09
2018-03-27T09:05:35.331Z,9.05
2018-03-27T09:06:35.258Z,9.09
2018-03-27T09:07:35.173Z,9.05
2018-03-27T09:08:35.109Z,9.13
2018-03-27T09:09:35.025Z,9.09
2018-03-27T09:10:34.954Z,9.10
2018-03-27T09:11:34.865Z,9.09
2018-03-27T09:12:34.798Z,9.12
2018-03-27T09:13:34.718Z,9.13
2018-03-27T09:14:34.643Z,9.35
2018-03-27T09:15:34.565Z,9.61
2018-03-27T09:16:34.499Z,9.82
2018-03-27T09:17:34.408Z,10.00
2018-03-27T09:18:34.340Z,10.19
2018-03-27T09:19:34.260Z,10.10
2018-03-27T09:20:34.193Z,10.01
2018-03-27T09:21:34.099Z,9.97
2018-03-27T09:22:34.034Z,10.10
2018-03-27T09:23:33.949Z,10.19
2018-03-27T09:24:33.885Z,10.40
2018-03-27T09:25:33.798Z,10.47
2018-03-27T09:26:33.727Z,10.69
2018-03-27T09:27:33.644Z,10.91
2018-03-27T09:28:33.613Z,10.95
2018-03-27T09:29:33.495Z,11.11
2018-03-27T09:30:33.425Z,11.13
2018-03-27T09:31:33.342Z,11.28
2018-03-27T09:32:33.271Z,11.26
2018-03-27T09:33:33.192Z,11.16
2018-03-27T09:34:33.121Z,11.10
2018-03-27T09:35:33.034Z,11.08
2018-03-27T09:36:32.971Z,11.00
2018-03-27T09:37:32.883Z,11.02
2018-03-27T09:38:32.820Z,11.11
2018-03-27T09:39:32.737Z,11.05
2018-03-27T09:40:32.668Z,10.87
2018-03-27T09:41:32.585Z,10.88
2018-03-27T09:42:32.516Z,10.66
2018-03-27T09:43:32.436Z,10.66
2018-03-27T09:44:32.368Z,10.56
2018-03-27T09:45:32.328Z,10.58
2018-03-27T09:46:32.215Z,10.81
2018-03-27T09:47:32.130Z,10.88
2018-03-27T09:48:32.110Z,11.00
2018-03-27T09:49:32.009Z,11.13
2018-03-27T09:50:31.902Z,11.34
2018-03-27T09:51:31.839Z,11.31
2018-03-27T09:52:31.753Z,11.21
2018-03-27T09:53:31.689Z,11.17
2018-03-27T09:54:31.601Z,11.11
2018-03-27T09:55:31.531Z,11.21
2018-03-27T09:56:31.450Z,11.32
2018-03-27T09:57:31.386Z,11.34
2018-03-27T09:58:31.356Z,11.32
2018-03-27T09:59:31.234Z,11.36
2018-03-27T10:00:31.151Z,11.24
2018-03-27T10:01:31.083Z,11.20
2018-03-27T10:02:30.996Z,11.14
2018-03-27T10:03:30.935Z,11.32
2018-03-27T10:04:30.849Z,11.35
2018-03-27T10:05:30.784Z,11.41
2018-03-27T10:06:30.701Z,11.36
2018-03-27T10:07:30.631Z,11.28
2018-03-27T10:08:30.560Z,11.10
2018-03-27T10:09:30.482Z,10.96
2018-03-27T10:10:30.398Z,11.14
2018-03-27T10:11:30.331Z,11.23
2018-03-27T10:12:30.246Z,11.43
2018-03-27T10:13:30.181Z,11.56
2018-03-27T10:14:30.096Z,11.74
2018-03-27T10:15:30.030Z,11.65
2018-03-27T10:16:29.955Z,11.78
2018-03-27T10:17:29.878Z,11.81
2018-03-27T10:18:29.797Z,11.90
2018-03-27T10:19:29.730Z,12.05
2018-03-27T10:20:29.648Z,12.13
2018-03-27T10:21:29.582Z,12.13
2018-03-27T10:22:29.496Z,12.21
2018-03-27T10:23:29.429Z,12.23
2018-03-27T10:24:29.348Z,12.28
2018-03-27T10:25:29.285Z,12.46
2018-03-27T10:26:29.200Z,12.39
2018-03-27T10:27:29.131Z,12.21
2018-03-27T10:28:29.050Z,12.16
2018-03-27T10:29:28.984Z,12.15
2018-03-27T10:30:28.904Z,12.12
2018-03-27T10:31:28.832Z,12.11
2018-03-27T10:32:28.753Z,12.05
2018-03-27T10:33:28.685Z,11.95
2018-03-27T10:34:28.604Z,11.83
2018-03-27T10:35:28.540Z,11.75
2018-03-27T10:36:28.456Z,11.72
2018-03-27T10:37:28.392Z,11.71
2018-03-27T10:38:28.354Z,11.74
2018-03-27T10:39:28.239Z,11.65
2018-03-27T10:40:28.162Z,11.72
2018-03-27T10:41:28.088Z,11.75
2018-03-27T10:42:28.009Z,11.90
2018-03-27T10:43:27.939Z,11.97
2018-03-27T10:44:27.856Z,12.02
2018-03-27T10:45:27.844Z,11.89
2018-03-27T10:46:27.710Z,11.86
2018-03-27T10:47:27.642Z,11.86
2018-03-27T10:48:27.557Z,11.69
2018-03-27T10:49:27.497Z,11.56
2018-03-27T10:50:27.411Z,11.53
2018-03-27T10:51:27.345Z,11.39
2018-03-27T10:52:27.263Z,11.26
2018-03-27T10:53:27.195Z,11.16
2018-03-27T10:54:27.114Z,10.98
2018-03-27T10:55:27.044Z,10.91
2018-03-27T10:56:26.964Z,10.91
2018-03-27T10:57:26.898Z,10.87
2018-03-27T10:58:26.818Z,10.77
2018-03-27T10:59:26.749Z,10.85
2018-03-27T11:00:26.662Z,10.77
2018-03-27T11:01:26.599Z,10.67
2018-03-27T11:02:26.513Z,10.71
2018-03-27T11:03:26.515Z,10.63
2018-03-27T11:04:26.365Z,10.58
2018-03-27T11:05:26.325Z,10.56
2018-03-27T11:06:26.210Z,10.46
2018-03-27T11:07:26.232Z,10.58
2018-03-27T11:08:26.082Z,10.58
2018-03-27T11:09:26.043Z,10.67
2018-03-27T11:10:25.913Z,10.65
2018-03-27T11:11:25.956Z,10.58
2018-03-27T11:12:25.768Z,10.56
2018-03-27T11:13:25.764Z,10.59
2018-03-27T11:14:25.612Z,10.44
2018-03-27T11:15:25.566Z,10.28
2018-03-27T11:16:25.461Z,10.23
2018-03-27T11:17:25.482Z,10.13
2018-03-27T11:18:25.309Z,10.15
2018-03-27T11:19:25.327Z,10.23
2018-03-27T11:20:25.162Z,10.31
2018-03-27T11:21:25.201Z,10.46
2018-03-27T11:22:25.017Z,10.49
2018-03-27T11:23:25.006Z,10.53
2018-03-27T11:24:24.861Z,10.62
2018-03-27T11:25:24.805Z,10.63
2018-03-27T11:26:24.710Z,10.59
2018-03-27T11:27:24.729Z,10.71
2018-03-27T11:28:24.560Z,10.74
2018-03-27T11:29:24.565Z,10.85
2018-03-27T11:30:24.408Z,10.95
2018-03-27T11:31:24.446Z,11.11
2018-03-27T11:32:24.258Z,11.24
2018-03-27T11:33:24.256Z,11.42
2018-03-27T11:34:24.107Z,11.57
2018-03-27T11:35:24.062Z,11.81
2018-03-27T11:36:23.959Z,11.95
2018-03-27T11:37:23.974Z,12.03
2018-03-27T11:38:23.809Z,12.15
2018-03-27T11:39:23.788Z,12.26
2018-03-27T11:40:23.658Z,12.41
2018-03-27T11:41:23.693Z,12.52
2018-03-27T11:42:23.513Z,12.51
2018-03-27T11:43:23.505Z,12.71
2018-03-27T11:44:23.361Z,12.73
2018-03-27T11:45:23.311Z,12.91
2018-03-27T11:46:23.210Z,12.91
2018-03-27T11:47:23.220Z,12.56
2018-03-27T11:48:23.097Z,12.53
2018-03-27T11:49:23.036Z,12.55
2018-03-27T11:50:22.911Z,12.66
2018-03-27T11:51:22.939Z,12.82
2018-03-27T11:52:22.763Z,12.88
2018-03-27T11:53:22.751Z,13.06
2018-03-27T11:54:22.613Z,13.17
2018-03-27T11:55:22.558Z,13.11
2018-03-27T11:56:22.466Z,13.28
2018-03-27T11:57:22.468Z,13.29
2018-03-27T11:58:22.319Z,13.06
2018-03-27T11:59:22.275Z,12.84
2018-03-27T12:00:22.171Z,12.85
2018-03-27T12:01:22.194Z,12.67
2018-03-27T12:02:22.023Z,12.73
2018-03-27T12:03:21.997Z,12.79
2018-03-27T12:04:21.877Z,12.96
2018-03-27T12:05:21.915Z,12.81
2018-03-27T12:06:21.725Z,12.66
2018-03-27T12:07:21.720Z,12.88
2018-03-27T12:08:21.577Z,12.82
2018-03-27T12:09:21.525Z,13.10
2018-03-27T12:10:21.431Z,13.17
2018-03-27T12:11:21.435Z,13.15
2018-03-27T12:12:21.342Z,13.27
2018-03-27T12:13:21.244Z,13.44
2018-03-27T12:14:21.140Z,13.38
2018-03-27T12:15:21.207Z,13.50
2018-03-27T12:16:20.998Z,13.56
2018-03-27T12:17:20.964Z,13.65
2018-03-27T12:18:20.843Z,13.71
2018-03-27T12:19:20.871Z,13.70
2018-03-27T12:20:20.696Z,13.63
2018-03-27T12:21:20.681Z,13.59
2018-03-27T12:22:20.546Z,13.68
2018-03-27T12:23:20.587Z,13.47
2018-03-27T12:24:20.419Z,13.40
2018-03-27T12:25:20.404Z,13.14
2018-03-27T12:26:20.255Z,13.14
2018-03-27T12:27:20.208Z,12.84
2018-03-27T12:28:20.104Z,12.63
2018-03-27T12:29:20.120Z,12.56
2018-03-27T12:30:19.964Z,12.59
2018-03-27T12:31:19.927Z,12.55
2018-03-27T12:32:19.814Z,12.51
2018-03-27T12:33:19.835Z,12.41
2018-03-27T12:34:19.665Z,12.27
2018-03-27T12:35:19.646Z,12.26
2018-03-27T12:36:19.522Z,12.21
2018-03-27T12:37:19.557Z,12.19
2018-03-27T12:38:19.370Z,12.16
2018-03-27T12:39:19.367Z,12.15
2018-03-27T12:40:19.226Z,12.08
2018-03-27T12:41:19.173Z,12.11
2018-03-27T12:42:19.103Z,11.94
2018-03-27T12:43:19.082Z,11.95
2018-03-27T12:44:18.926Z,11.98
2018-03-27T12:45:18.893Z,12.13
2018-03-27T12:46:18.773Z,12.09
2018-03-27T12:47:18.805Z,12.11
2018-03-27T12:48:18.630Z,12.19
2018-03-27T12:49:18.613Z,12.24
2018-03-27T12:50:18.487Z,12.13
2018-03-27T12:51:18.523Z,12.28
2018-03-27T12:52:18.342Z,12.48
2018-03-27T12:53:20.313Z,12.49
2018-03-27T12:54:18.191Z,12.77
2018-03-27T12:55:18.144Z,12.78
2018-03-27T12:56:18.037Z,12.88
2018-03-27T12:57:22.558Z,12.89
2018-03-27T12:58:17.889Z,13.00
2018-03-27T12:59:17.862Z,12.85
2018-03-27T13:00:17.738Z,12.82
2018-03-27T13:01:17.772Z,12.84
2018-03-27T13:02:17.592Z,12.85
2018-03-27T13:03:17.580Z,12.81
2018-03-27T13:04:17.442Z,12.86
2018-03-27T13:05:17.490Z,12.78
2018-03-27T13:06:17.295Z,12.77
2018-03-27T13:07:17.300Z,12.69
2018-03-27T13:08:17.149Z,12.66
2018-03-27T13:09:17.111Z,12.69